Terminal Aerodrome Forecast
Issued by NWS

Home | Current Version | Previous Version | Text Only | Print | Product List | Glossary On
Versions: 1 2 3 4 5 6 7 8 9 10 11 12 13 14 15 16 17
000
FTUS45 KLKN 210320 AAA
TAFEKO
TAF AMD
KEKO 210320Z 2103/2124 09005KT 6SM -SHRA FEW010 OVC040
      TEMPO 2103/2107 OVC030
     FM210700 21020KT 6SM -SHRA BKN015 OVC040=

USA.gov is the U.S. government's official web portal to all federal, state and local government web resources and services.